Current Weather

Glendale Muni

Glendale, Arizona (KGEU)

Report from: Sunday, June 26, 2022 9:52 AM MST
Current time: Sunday, June 26, 2022 10:05 AM MST

Nearby weather
Weather history
Weather forecast

Temperature35.0°C (95.0°F)
Heat index33.7°C (92.7°F)
Dew point12.0°C (53.6°F)
Winds 9 kts (4.6 m/s, 10.4 mph) East (80°)
Visibility10 mi. (16.1 km)
Clouds Scattered clouds 15,000 ft. (4,572 m)
Scattered clouds 25,000 ft. (7,620 m)
Altimeter29.98 in.Hg (1015 mB)
Relative humidity25 %
Density altitude2,402 ft. (732 m)
Flight conditions Visual Meteorological Conditions
Raw dataKGEU 261652Z 08009KT 10SM SCT150 SCT250 35/12 A2998
An error has occurred. This application may no longer respond until reloaded. Reload 🗙